createdAt,value
2023-01-30T00:00:55.258Z,76.09
2023-01-30T00:03:24.024Z,77.40
2023-01-30T00:05:51.784Z,78.17
2023-01-30T00:08:19.730Z,76.45
2023-01-30T00:10:49.160Z,79.91
2023-01-30T00:13:17.118Z,76.47
2023-01-30T00:15:45.052Z,78.14
2023-01-30T00:18:12.476Z,78.48
2023-01-30T00:20:39.940Z,81.26
2023-01-30T00:23:07.375Z,78.19
2023-01-30T00:25:35.060Z,76.26
2023-01-30T00:28:04.007Z,76.06
2023-01-30T00:30:31.629Z,75.62
2023-01-30T00:33:00.258Z,78.54
2023-01-30T00:35:29.325Z,74.83
2023-01-30T00:37:58.149Z,78.37
2023-01-30T00:40:26.882Z,78.45
2023-01-30T00:46:04.139Z,78.45
2023-01-30T00:48:32.372Z,78.63
2023-01-30T00:50:59.842Z,76.09
2023-01-30T00:53:27.298Z,75.51
2023-01-30T00:55:55.817Z,74.65
2023-01-30T00:58:24.795Z,74.60
2023-01-30T01:00:53.811Z,74.22
2023-01-30T01:03:21.332Z,77.00
2023-01-30T01:05:49.653Z,78.14
2023-01-30T01:08:17.550Z,76.98
2023-01-30T01:10:45.079Z,77.38
2023-01-30T01:13:12.533Z,75.22
2023-01-30T01:15:39.994Z,78.36
2023-01-30T01:18:08.787Z,77.35
2023-01-30T01:20:36.198Z,78.12
2023-01-30T01:23:03.724Z,77.41
2023-01-30T01:25:31.185Z,78.58
2023-01-30T01:27:58.646Z,76.26
2023-01-30T01:30:26.126Z,78.69
2023-01-30T01:32:53.604Z,78.76
2023-01-30T01:35:22.364Z,79.72
2023-01-30T01:37:53.650Z,77.16
2023-01-30T01:40:40.337Z,76.00
2023-01-30T01:43:16.813Z,75.69
2023-01-30T01:45:45.453Z,75.92
2023-01-30T01:48:17.204Z,76.03
2023-01-30T01:50:50.676Z,75.63
2023-01-30T01:53:22.120Z,74.41
2023-01-30T01:55:53.037Z,75.98
2023-01-30T01:58:26.625Z,78.47
2023-01-30T02:00:57.885Z,77.58
2023-01-30T02:03:27.912Z,77.65
2023-01-30T02:05:59.410Z,77.06
2023-01-30T02:08:31.322Z,79.68
2023-01-30T02:11:04.340Z,78.78
2023-01-30T02:13:32.473Z,78.62
2023-01-30T02:16:05.349Z,80.90
2023-01-30T02:18:35.078Z,81.92
2023-01-30T02:21:25.935Z,84.53
2023-01-30T02:24:17.927Z,84.21
2023-01-30T02:26:55.479Z,82.64
2023-01-30T02:30:19.476Z,83.09
2023-01-30T02:32:57.558Z,84.49
2023-01-30T02:35:30.669Z,83.85
2023-01-30T02:38:13.778Z,82.48
2023-01-30T02:40:49.758Z,85.02
2023-01-30T02:43:26.154Z,84.97
2023-01-30T02:46:01.590Z,85.72
2023-01-30T02:48:36.938Z,86.83
2023-01-30T02:51:07.570Z,87.72
2023-01-30T02:53:35.758Z,85.84
2023-01-30T02:56:04.648Z,86.06
2023-01-30T02:58:38.098Z,82.36
2023-01-30T03:01:21.812Z,83.22
2023-01-30T03:04:08.272Z,86.09
2023-01-30T03:06:50.705Z,87.82
2023-01-30T03:09:26.600Z,87.87
2023-01-30T03:12:03.922Z,83.38
2023-01-30T03:14:38.818Z,88.05
2023-01-30T03:17:09.926Z,86.99
2023-01-30T03:19:39.149Z,88.99
2023-01-30T03:22:06.613Z,86.22
2023-01-30T03:24:34.426Z,87.07
2023-01-30T03:27:06.780Z,85.08
2023-01-30T03:29:34.558Z,83.26
2023-01-30T03:32:01.995Z,86.63
2023-01-30T03:34:29.570Z,86.39
2023-01-30T03:36:58.521Z,83.04
2023-01-30T03:39:26.400Z,83.00
2023-01-30T03:41:54.976Z,84.06
2023-01-30T03:44:22.530Z,83.05
2023-01-30T03:46:49.985Z,84.91
2023-01-30T03:49:18.062Z,83.87
2023-01-30T03:51:45.723Z,84.06
2023-01-30T03:54:14.555Z,84.17
2023-01-30T03:56:42.001Z,85.85
2023-01-30T03:59:09.613Z,82.94
2023-01-30T04:01:37.163Z,84.52
2023-01-30T04:04:04.777Z,83.40
2023-01-30T04:06:32.269Z,86.91
2023-01-30T04:08:59.760Z,86.11
2023-01-30T04:11:28.684Z,86.80
2023-01-30T04:13:56.177Z,85.68
2023-01-30T04:16:26.023Z,85.52
2023-01-30T04:18:54.046Z,86.99
2023-01-30T04:21:21.976Z,86.07
2023-01-30T04:23:49.564Z,87.60
2023-01-30T04:26:17.220Z,85.29
2023-01-30T04:28:45.999Z,85.78
2023-01-30T04:31:13.425Z,83.46
2023-01-30T04:33:41.017Z,83.06
2023-01-30T04:36:10.453Z,84.66
2023-01-30T04:38:38.290Z,85.20
2023-01-30T04:41:06.450Z,85.87
2023-01-30T04:43:34.001Z,84.73
2023-01-30T04:46:02.794Z,86.12
2023-01-30T04:48:30.229Z,87.35
2023-01-30T04:50:58.262Z,86.84
2023-01-30T04:53:26.229Z,87.83
2023-01-30T04:55:53.680Z,86.83
2023-01-30T04:58:21.187Z,85.95
2023-01-30T05:00:49.896Z,87.89
2023-01-30T05:03:18.814Z,87.33
2023-01-30T05:05:48.153Z,87.11
2023-01-30T05:08:17.102Z,90.14
2023-01-30T05:10:44.602Z,91.56
2023-01-30T05:13:12.066Z,93.07
2023-01-30T05:15:40.395Z,91.26
2023-01-30T05:18:07.797Z,93.86
2023-01-30T05:20:36.534Z,91.95
2023-01-30T05:23:03.939Z,93.27
2023-01-30T05:25:31.505Z,92.01
2023-01-30T05:27:59.013Z,89.74
2023-01-30T05:30:26.455Z,90.94
2023-01-30T05:32:53.913Z,90.98
2023-01-30T05:35:21.430Z,89.75
2023-01-30T05:37:52.747Z,91.07
2023-01-30T05:40:20.307Z,92.57
2023-01-30T05:42:47.752Z,92.19
2023-01-30T05:45:15.478Z,89.31
2023-01-30T05:47:42.891Z,90.49
2023-01-30T05:50:12.018Z,92.79
2023-01-30T05:52:39.419Z,91.31
2023-01-30T05:55:09.616Z,89.83
2023-01-30T05:57:37.007Z,90.67
2023-01-30T06:00:05.301Z,90.33
2023-01-30T06:02:32.781Z,91.68
2023-01-30T06:05:00.209Z,90.06
2023-01-30T06:07:27.598Z,91.14
2023-01-30T06:09:55.014Z,90.92
2023-01-30T06:12:23.762Z,92.83
2023-01-30T06:14:51.172Z,94.17
2023-01-30T06:17:18.621Z,92.07
2023-01-30T06:19:46.064Z,93.34
2023-01-30T06:22:13.437Z,92.80
2023-01-30T06:24:40.825Z,93.45
2023-01-30T06:27:08.208Z,92.16
2023-01-30T06:29:36.956Z,91.74
2023-01-30T06:32:04.556Z,91.68
2023-01-30T06:34:31.963Z,93.61
2023-01-30T06:36:59.405Z,91.79
2023-01-30T06:39:26.805Z,91.10
2023-01-30T06:41:54.223Z,93.01
2023-01-30T06:44:21.615Z,93.19
2023-01-30T06:46:50.392Z,92.08
2023-01-30T06:49:17.766Z,92.54
2023-01-30T06:51:45.208Z,94.16
2023-01-30T06:54:12.612Z,93.11
2023-01-30T06:56:40.014Z,93.23
2023-01-30T06:59:07.523Z,92.68
2023-01-30T07:01:34.975Z,94.71
2023-01-30T07:04:03.725Z,96.60
2023-01-30T07:06:31.185Z,97.10
2023-01-30T07:08:58.865Z,98.04
2023-01-30T07:11:26.329Z,96.20
2023-01-30T07:13:53.763Z,95.15
2023-01-30T07:16:23.957Z,95.33
2023-01-30T07:18:51.357Z,94.04
2023-01-30T07:21:20.070Z,95.60
2023-01-30T07:23:48.117Z,96.79
2023-01-30T07:26:15.563Z,96.17
2023-01-30T07:28:43.004Z,94.43
2023-01-30T07:31:10.453Z,93.63
2023-01-30T07:33:37.929Z,95.06
2023-01-30T07:36:05.965Z,95.90
2023-01-30T07:38:34.821Z,97.12
2023-01-30T07:41:02.346Z,97.60
2023-01-30T07:43:29.724Z,95.92
2023-01-30T07:45:57.134Z,94.54
2023-01-30T07:48:24.559Z,95.59
2023-01-30T07:50:56.368Z,96.58
2023-01-30T07:53:24.070Z,97.85
2023-01-30T07:55:52.891Z,100.00
2023-01-30T07:58:20.326Z,99.23
2023-01-30T08:00:47.877Z,100.00
2023-01-30T08:03:17.918Z,97.52
2023-01-30T08:05:46.741Z,94.13
2023-01-30T08:08:14.549Z,94.76
2023-01-30T08:10:42.063Z,93.02
2023-01-30T08:13:11.108Z,94.21
2023-01-30T08:15:38.606Z,93.09
2023-01-30T08:18:07.349Z,96.57
2023-01-30T08:20:35.141Z,96.70
2023-01-30T08:23:02.916Z,99.75
2023-01-30T08:25:30.780Z,98.65
2023-01-30T08:27:59.889Z,96.03
2023-01-30T08:30:30.337Z,93.02
2023-01-30T08:32:58.406Z,98.62
2023-01-30T08:35:25.935Z,97.80
2023-01-30T08:37:53.345Z,94.00
2023-01-30T08:40:21.092Z,96.38
2023-01-30T08:42:48.650Z,96.22
2023-01-30T08:45:16.105Z,97.75
2023-01-30T08:47:44.860Z,96.75
2023-01-30T08:50:12.517Z,93.45
2023-01-30T08:52:40.108Z,93.92
2023-01-30T08:55:08.277Z,93.16
2023-01-30T08:57:35.715Z,92.38
2023-01-30T09:00:03.791Z,95.15
2023-01-30T09:02:31.370Z,94.38
2023-01-30T09:05:00.230Z,93.46
2023-01-30T09:07:28.741Z,94.81
2023-01-30T09:09:56.608Z,91.86
2023-01-30T09:12:24.500Z,93.82
2023-01-30T09:14:53.135Z,91.97
2023-01-30T09:17:20.644Z,93.08
2023-01-30T09:19:48.103Z,92.72
2023-01-30T09:22:17.486Z,89.84
2023-01-30T09:24:45.250Z,89.37
2023-01-30T09:27:12.683Z,92.05
2023-01-30T09:29:40.080Z,89.98
2023-01-30T09:32:07.515Z,88.09
2023-01-30T09:34:35.074Z,91.32
2023-01-30T09:37:04.789Z,92.25
2023-01-30T09:39:33.851Z,91.02
2023-01-30T09:42:23.705Z,93.48
2023-01-30T09:45:24.351Z,93.29
2023-01-30T09:48:03.297Z,92.03
2023-01-30T09:50:47.465Z,90.51
2023-01-30T09:53:22.152Z,88.25
2023-01-30T09:55:51.186Z,92.35
2023-01-30T09:58:21.793Z,91.72
2023-01-30T10:00:52.516Z,90.71
2023-01-30T10:03:25.417Z,91.08
2023-01-30T10:05:57.685Z,90.94
2023-01-30T10:08:51.057Z,90.23
2023-01-30T10:11:31.602Z,89.26
2023-01-30T10:14:14.377Z,88.37
2023-01-30T10:16:47.988Z,87.27
2023-01-30T10:19:35.646Z,87.10
2023-01-30T10:22:16.724Z,86.44
2023-01-30T10:24:57.290Z,86.88
2023-01-30T10:27:28.687Z,87.39
2023-01-30T10:29:59.235Z,86.20
2023-01-30T10:32:31.841Z,85.93
2023-01-30T10:35:05.506Z,86.47
2023-01-30T10:37:37.680Z,84.67
2023-01-30T10:40:15.440Z,84.81
2023-01-30T10:42:51.586Z,83.98
2023-01-30T10:45:24.460Z,84.26
2023-01-30T10:48:07.854Z,83.89
2023-01-30T10:50:46.356Z,83.80
2023-01-30T10:53:21.588Z,83.37
2023-01-30T10:55:53.785Z,81.85
2023-01-30T10:58:31.717Z,83.10
2023-01-30T11:01:02.051Z,84.18
2023-01-30T11:03:39.048Z,82.78
2023-01-30T11:06:11.671Z,82.34
2023-01-30T11:08:39.203Z,79.92
2023-01-30T11:11:24.535Z,80.93
2023-01-30T11:14:02.003Z,80.73
2023-01-30T11:16:29.999Z,81.20
2023-01-30T11:21:51.796Z,79.71
2023-01-30T11:24:21.893Z,81.21
2023-01-30T11:26:50.410Z,79.84
2023-01-30T11:29:27.132Z,80.70
2023-01-30T11:31:55.616Z,82.09
2023-01-30T11:34:25.329Z,80.35
2023-01-30T11:36:52.895Z,80.50
2023-01-30T11:39:24.010Z,80.02
2023-01-30T11:42:01.887Z,78.56
2023-01-30T11:44:33.173Z,78.87
2023-01-30T11:47:02.804Z,80.11
2023-01-30T11:49:50.812Z,82.08
2023-01-30T11:52:28.943Z,84.89
2023-01-30T11:55:03.244Z,87.31
2023-01-30T11:57:31.005Z,90.49
2023-01-30T12:00:01.713Z,91.54
2023-01-30T12:02:33.143Z,92.85
2023-01-30T12:05:03.022Z,94.31
2023-01-30T12:07:32.488Z,95.55
2023-01-30T12:10:00.600Z,96.44
2023-01-30T12:12:33.994Z,93.18
2023-01-30T12:15:18.094Z,91.59
2023-01-30T12:17:50.306Z,90.49
2023-01-30T12:20:26.087Z,90.60
2023-01-30T12:23:03.012Z,88.67
2023-01-30T12:25:36.089Z,86.71
2023-01-30T12:28:11.984Z,87.18
2023-01-30T12:30:47.319Z,87.74
2023-01-30T12:36:01.199Z,84.24
2023-01-30T12:38:42.313Z,82.86
2023-01-30T12:41:26.948Z,83.76
2023-01-30T12:44:08.369Z,81.60
2023-01-30T12:46:53.704Z,82.47
2023-01-30T12:49:37.703Z,82.96
2023-01-30T12:52:29.899Z,83.68
2023-01-30T12:57:54.729Z,82.28
2023-01-30T13:00:34.548Z,82.89
2023-01-30T13:03:20.221Z,82.65
2023-01-30T13:05:55.181Z,79.39
2023-01-30T13:08:38.498Z,78.92
2023-01-30T13:11:16.479Z,81.79
2023-01-30T13:13:50.371Z,81.94
2023-01-30T13:16:29.128Z,79.09
2023-01-30T13:19:03.688Z,77.84
2023-01-30T13:21:37.750Z,79.59
2023-01-30T13:24:22.173Z,78.62
2023-01-30T13:26:53.622Z,77.54
2023-01-30T13:29:27.141Z,77.53
2023-01-30T13:31:58.031Z,76.85
2023-01-30T13:34:32.727Z,76.22
2023-01-30T13:37:05.109Z,75.41
2023-01-30T13:39:42.353Z,75.10
2023-01-30T13:42:19.036Z,78.82
2023-01-30T13:44:47.108Z,81.07
2023-01-30T13:47:28.925Z,83.88
2023-01-30T13:50:10.090Z,84.34
2023-01-30T13:52:45.659Z,87.03
2023-01-30T13:55:26.271Z,88.19
2023-01-30T13:58:00.545Z,88.07
2023-01-30T14:00:30.994Z,89.76
2023-01-30T14:03:25.004Z,92.82
2023-01-30T14:06:37.870Z,93.50
2023-01-30T14:09:22.685Z,94.44
2023-01-30T14:11:58.413Z,93.80
2023-01-30T14:14:30.229Z,92.41
2023-01-30T14:17:08.758Z,93.89
2023-01-30T14:19:40.663Z,92.64
2023-01-30T14:22:29.383Z,93.79
2023-01-30T14:25:45.929Z,94.52
2023-01-30T14:28:51.918Z,94.23
2023-01-30T14:31:53.674Z,94.52
2023-01-30T14:35:16.923Z,94.33
2023-01-30T14:37:51.246Z,93.93
2023-01-30T14:40:31.580Z,94.43
2023-01-30T14:43:41.728Z,94.47
2023-01-30T14:46:29.068Z,93.97
2023-01-30T14:49:05.026Z,94.31
2023-01-30T14:51:36.692Z,94.32
2023-01-30T14:54:20.574Z,94.32
2023-01-30T14:56:54.086Z,94.29
2023-01-30T14:59:25.961Z,95.06
2023-01-30T15:02:22.326Z,94.94
2023-01-30T15:04:57.195Z,94.44
2023-01-30T15:07:27.697Z,94.24
2023-01-30T15:09:59.887Z,93.64
2023-01-30T15:13:10.459Z,93.98
2023-01-30T15:15:45.947Z,94.42
2023-01-30T15:19:06.631Z,93.65
2023-01-30T15:21:49.451Z,93.64
2023-01-30T15:24:33.448Z,93.63
2023-01-30T15:27:13.042Z,91.99
2023-01-30T15:30:01.754Z,92.03
2023-01-30T15:32:30.921Z,92.82
2023-01-30T15:35:00.534Z,93.15
2023-01-30T15:37:33.758Z,93.71
2023-01-30T15:40:29.701Z,93.65
2023-01-30T15:43:14.132Z,93.27
2023-01-30T15:45:50.228Z,93.67
2023-01-30T15:48:41.062Z,93.37
2023-01-30T15:51:14.139Z,92.35
2023-01-30T15:53:44.346Z,92.05
2023-01-30T15:56:18.473Z,90.98
2023-01-30T15:58:47.614Z,90.46
2023-01-30T16:01:20.457Z,90.40
2023-01-30T16:03:53.252Z,90.78
2023-01-30T16:06:23.687Z,90.05
2023-01-30T16:09:00.438Z,90.05
2023-01-30T16:11:39.630Z,90.40
2023-01-30T16:14:14.381Z,90.80
2023-01-30T16:16:46.072Z,90.75
2023-01-30T16:19:22.695Z,91.11
2023-01-30T16:21:50.548Z,91.52
2023-01-30T16:24:21.378Z,91.55
2023-01-30T16:26:52.406Z,93.52
2023-01-30T16:29:24.029Z,94.43
2023-01-30T16:31:53.723Z,94.49
2023-01-30T16:34:33.621Z,96.67
2023-01-30T16:37:07.710Z,96.03
2023-01-30T16:39:37.005Z,95.40
2023-01-30T16:42:20.923Z,97.29
2023-01-30T16:44:49.616Z,97.62
2023-01-30T16:47:25.111Z,98.19
2023-01-30T16:49:54.016Z,97.39
2023-01-30T16:52:24.082Z,96.46
2023-01-30T16:54:54.085Z,96.25
2023-01-30T16:57:31.683Z,96.12
2023-01-30T17:00:00.898Z,96.16
2023-01-30T17:02:34.345Z,96.21
2023-01-30T17:05:19.510Z,96.92
2023-01-30T17:07:47.778Z,95.94
2023-01-30T17:10:51.322Z,95.82
2023-01-30T17:13:32.212Z,95.82
2023-01-30T17:16:27.190Z,95.92
2023-01-30T17:18:56.438Z,96.53
2023-01-30T17:21:26.374Z,95.74
2023-01-30T17:23:56.947Z,95.34
2023-01-30T17:26:24.649Z,95.36
2023-01-30T17:28:52.162Z,94.98
2023-01-30T17:31:20.332Z,95.72
2023-01-30T17:33:49.163Z,96.03
2023-01-30T17:36:23.993Z,95.40
2023-01-30T17:38:52.023Z,95.79
2023-01-30T17:41:21.409Z,96.90
2023-01-30T17:43:49.853Z,96.30
2023-01-30T17:46:18.400Z,96.54
2023-01-30T17:48:45.934Z,96.13
2023-01-30T17:51:14.701Z,96.11
2023-01-30T17:53:42.629Z,95.85
2023-01-30T17:56:18.648Z,94.74
2023-01-30T17:58:46.213Z,94.77
2023-01-30T18:01:16.057Z,93.45
2023-01-30T18:03:44.927Z,93.48
2023-01-30T18:06:15.442Z,93.94
2023-01-30T18:08:43.567Z,92.35
2023-01-30T18:11:11.959Z,92.14
2023-01-30T18:13:40.474Z,90.60
2023-01-30T18:16:11.217Z,91.75
2023-01-30T18:18:38.622Z,90.58
2023-01-30T18:21:06.414Z,90.40
2023-01-30T18:23:37.025Z,89.65
2023-01-30T18:26:04.815Z,88.71
2023-01-30T18:28:32.328Z,88.71
2023-01-30T18:30:59.872Z,88.00
2023-01-30T18:33:27.470Z,87.45
2023-01-30T18:35:54.828Z,87.31
2023-01-30T18:38:22.427Z,87.33
2023-01-30T18:40:51.185Z,87.78
2023-01-30T18:43:18.576Z,87.20
2023-01-30T18:45:45.964Z,86.90
2023-01-30T18:48:13.361Z,86.54
2023-01-30T18:50:40.760Z,86.71
2023-01-30T18:53:08.507Z,86.65
2023-01-30T18:55:36.193Z,86.54
2023-01-30T18:58:04.932Z,86.16
2023-01-30T19:00:32.337Z,85.69
2023-01-30T19:02:59.813Z,85.56
2023-01-30T19:05:27.339Z,85.49
2023-01-30T19:07:55.551Z,85.30
2023-01-30T19:10:23.030Z,85.09
2023-01-30T19:13:07.826Z,83.90
2023-01-30T19:15:37.346Z,84.61
2023-01-30T19:18:05.124Z,83.49
2023-01-30T19:20:32.542Z,84.07
2023-01-30T19:22:59.948Z,83.42
2023-01-30T19:25:27.551Z,82.94
2023-01-30T19:27:56.430Z,82.79
2023-01-30T19:30:24.404Z,82.67
2023-01-30T19:32:54.296Z,81.75
2023-01-30T19:35:22.059Z,81.77
2023-01-30T19:37:49.623Z,81.89
2023-01-30T19:40:18.012Z,81.46
2023-01-30T19:42:46.564Z,81.00
2023-01-30T19:45:14.948Z,81.05
2023-01-30T19:47:42.432Z,80.78
2023-01-30T19:50:12.384Z,81.13
2023-01-30T19:52:40.779Z,80.12
2023-01-30T19:55:08.918Z,80.77
2023-01-30T19:57:36.554Z,82.41
2023-01-30T20:00:05.142Z,82.55
2023-01-30T20:02:32.602Z,82.99
2023-01-30T20:05:00.045Z,83.25
2023-01-30T20:07:29.831Z,84.05
2023-01-30T20:09:57.245Z,84.13
2023-01-30T20:12:24.682Z,83.61
2023-01-30T20:14:52.092Z,83.82
2023-01-30T20:17:19.519Z,84.25
2023-01-30T20:19:46.933Z,83.62
2023-01-30T20:22:14.398Z,82.95
2023-01-30T20:24:43.199Z,84.12
2023-01-30T20:27:10.613Z,83.28
2023-01-30T20:29:38.026Z,83.06
2023-01-30T20:32:06.124Z,83.00
2023-01-30T20:34:33.595Z,82.83
2023-01-30T20:37:00.978Z,82.33
2023-01-30T20:39:28.458Z,81.55
2023-01-30T20:41:57.206Z,81.80
2023-01-30T20:44:25.743Z,80.67
2023-01-30T20:46:53.199Z,80.87
2023-01-30T20:49:22.138Z,79.91
2023-01-30T20:51:52.293Z,98.52
2023-01-30T20:54:21.553Z,84.92
2023-01-30T20:56:50.900Z,77.85
2023-01-30T20:59:23.909Z,72.31
2023-01-30T21:01:52.135Z,71.45
2023-01-30T21:04:20.866Z,67.85
2023-01-30T21:06:48.329Z,63.94
2023-01-30T21:09:17.522Z,71.94
2023-01-30T21:11:45.314Z,75.01
2023-01-30T21:14:13.331Z,75.80
2023-01-30T21:16:42.429Z,75.83
2023-01-30T21:19:16.484Z,76.65
2023-01-30T21:21:50.595Z,76.25
2023-01-30T21:24:21.427Z,75.67
2023-01-30T21:26:49.201Z,74.56
2023-01-30T21:29:18.936Z,75.26
2023-01-30T21:31:50.605Z,75.04
2023-01-30T21:34:18.220Z,76.67
2023-01-30T21:37:05.638Z,77.79
2023-01-30T21:39:50.847Z,78.89
2023-01-30T21:42:34.753Z,77.91
2023-01-30T21:45:02.384Z,78.65
2023-01-30T21:47:31.241Z,77.90
2023-01-30T21:49:58.654Z,77.65
2023-01-30T21:52:26.188Z,77.24
2023-01-30T21:54:53.610Z,78.81
2023-01-30T21:57:21.023Z,80.33
2023-01-30T21:59:48.457Z,80.19
2023-01-30T22:02:15.966Z,79.95
2023-01-30T22:04:44.700Z,79.55
2023-01-30T22:07:12.093Z,80.22
2023-01-30T22:09:39.801Z,80.43
2023-01-30T22:12:07.598Z,79.64
2023-01-30T22:14:36.345Z,80.38
2023-01-30T22:17:03.921Z,80.33
2023-01-30T22:19:35.668Z,79.86
2023-01-30T22:22:04.985Z,79.83
2023-01-30T22:24:32.424Z,81.04
2023-01-30T22:26:59.930Z,80.21
2023-01-30T22:29:28.974Z,80.28
2023-01-30T22:31:56.425Z,79.92
2023-01-30T22:34:23.896Z,79.31
2023-01-30T22:36:51.729Z,79.08
2023-01-30T22:39:20.468Z,79.64
2023-01-30T22:41:47.874Z,79.64
2023-01-30T22:44:15.269Z,80.10
2023-01-30T22:46:42.860Z,80.50
2023-01-30T22:49:10.955Z,80.10
2023-01-30T22:51:40.924Z,79.29
2023-01-30T22:54:11.001Z,80.07
2023-01-30T22:56:41.591Z,80.52
2023-01-30T22:59:10.485Z,80.67
2023-01-30T23:01:39.559Z,80.63
2023-01-30T23:04:10.824Z,80.68
2023-01-30T23:06:38.569Z,80.74
2023-01-30T23:09:08.693Z,80.21
2023-01-30T23:11:37.979Z,80.89
2023-01-30T23:14:13.280Z,80.29
2023-01-30T23:16:42.887Z,81.55
2023-01-30T23:19:10.886Z,81.08
2023-01-30T23:21:40.678Z,80.52
2023-01-30T23:24:11.265Z,79.93
2023-01-30T23:26:40.831Z,79.85
2023-01-30T23:29:13.204Z,79.89
2023-01-30T23:31:41.740Z,79.46
2023-01-30T23:34:13.399Z,79.09
2023-01-30T23:36:40.901Z,79.27
2023-01-30T23:39:08.456Z,79.69
2023-01-30T23:41:37.566Z,79.53
2023-01-30T23:44:05.350Z,79.08
2023-01-30T23:46:36.458Z,79.44
2023-01-30T23:49:06.410Z,79.79
2023-01-30T23:51:35.719Z,79.22
2023-01-30T23:54:03.419Z,79.85
2023-01-30T23:56:33.099Z,79.69
2023-01-30T23:59:00.812Z,80.59
